sensor_id;sensor_type;location;lat;lon;timestamp;temperature;humidity
54178;DHT22;40085;53.004;6.770;2023-06-04T00:00:53;11.10;1.00
54178;DHT22;40085;53.004;6.770;2023-06-04T00:03:19;11.10;1.00
54178;DHT22;40085;53.004;6.770;2023-06-04T00:05:44;11.10;1.00
54178;DHT22;40085;53.004;6.770;2023-06-04T00:08:10;11.00;1.00
54178;DHT22;40085;53.004;6.770;2023-06-04T00:10:35;11.00;1.00
54178;DHT22;40085;53.004;6.770;2023-06-04T00:13:01;10.90;3.40
54178;DHT22;40085;53.004;6.770;2023-06-04T00:15:27;10.90;18.00
54178;DHT22;40085;53.004;6.770;2023-06-04T00:17:52;10.90;14.80
54178;DHT22;40085;53.004;6.770;2023-06-04T00:20:21;10.90;18.40
54178;DHT22;40085;53.004;6.770;2023-06-04T00:22:47;10.80;19.70
54178;DHT22;40085;53.004;6.770;2023-06-04T00:25:12;11.30;27.00
54178;DHT22;40085;53.004;6.770;2023-06-04T00:27:38;10.80;26.20
54178;DHT22;40085;53.004;6.770;2023-06-04T00:30:05;10.80;49.80
54178;DHT22;40085;53.004;6.770;2023-06-04T00:32:31;10.70;67.70
54178;DHT22;40085;53.004;6.770;2023-06-04T00:34:57;10.80;42.30
54178;DHT22;40085;53.004;6.770;2023-06-04T00:37:28;10.80;34.60
54178;DHT22;40085;53.004;6.770;2023-06-04T00:39:56;10.70;75.70
54178;DHT22;40085;53.004;6.770;2023-06-04T00:42:22;10.70;68.30
54178;DHT22;40085;53.004;6.770;2023-06-04T00:44:47;10.70;66.70
54178;DHT22;40085;53.004;6.770;2023-06-04T00:47:14;10.70;66.00
54178;DHT22;40085;53.004;6.770;2023-06-04T00:49:41;10.70;90.50
54178;DHT22;40085;53.004;6.770;2023-06-04T00:52:08;10.60;99.90
54178;DHT22;40085;53.004;6.770;2023-06-04T00:54:35;10.60;99.90
54178;DHT22;40085;53.004;6.770;2023-06-04T00:57:01;10.60;95.20
54178;DHT22;40085;53.004;6.770;2023-06-04T00:59:29;10.60;96.60
54178;DHT22;40085;53.004;6.770;2023-06-04T01:02:00;10.60;96.50
54178;DHT22;40085;53.004;6.770;2023-06-04T01:04:32;10.60;99.00
54178;DHT22;40085;53.004;6.770;2023-06-04T01:07:01;10.50;99.90
54178;DHT22;40085;53.004;6.770;2023-06-04T01:09:31;10.50;99.90
54178;DHT22;40085;53.004;6.770;2023-06-04T01:11:57;10.50;99.90
54178;DHT22;40085;53.004;6.770;2023-06-04T01:14:24;10.40;99.90
54178;DHT22;40085;53.004;6.770;2023-06-04T01:17:26;10.40;99.90
54178;DHT22;40085;53.004;6.770;2023-06-04T01:25:21;10.20;99.90
54178;DHT22;40085;53.004;6.770;2023-06-04T01:27:50;10.30;99.90
54178;DHT22;40085;53.004;6.770;2023-06-04T01:30:26;10.30;99.90
54178;DHT22;40085;53.004;6.770;2023-06-04T01:32:57;10.30;99.90
54178;DHT22;40085;53.004;6.770;2023-06-04T01:35:23;10.20;99.90
54178;DHT22;40085;53.004;6.770;2023-06-04T01:37:50;10.30;99.90
54178;DHT22;40085;53.004;6.770;2023-06-04T01:40:17;10.20;99.90
54178;DHT22;40085;53.004;6.770;2023-06-04T01:42:43;10.20;1.00
54178;DHT22;40085;53.004;6.770;2023-06-04T01:45:09;10.10;76.70
54178;DHT22;40085;53.004;6.770;2023-06-04T01:47:35;10.10;99.90
54178;DHT22;40085;53.004;6.770;2023-06-04T01:50:05;10.10;99.90
54178;DHT22;40085;53.004;6.770;2023-06-04T01:52:38;10.10;99.90
54178;DHT22;40085;53.004;6.770;2023-06-04T01:55:09;10.20;99.90
54178;DHT22;40085;53.004;6.770;2023-06-04T01:57:35;10.20;99.90
54178;DHT22;40085;53.004;6.770;2023-06-04T02:00:02;10.10;99.90
54178;DHT22;40085;53.004;6.770;2023-06-04T02:02:29;10.10;99.90
54178;DHT22;40085;53.004;6.770;2023-06-04T02:04:56;10.70;99.90
54178;DHT22;40085;53.004;6.770;2023-06-04T02:07:22;10.10;1.00
54178;DHT22;40085;53.004;6.770;2023-06-04T02:09:48;10.00;1.00
54178;DHT22;40085;53.004;6.770;2023-06-04T02:12:15;10.00;77.40
54178;DHT22;40085;53.004;6.770;2023-06-04T02:14:41;10.00;99.90
54178;DHT22;40085;53.004;6.770;2023-06-04T02:17:07;10.00;99.90
54178;DHT22;40085;53.004;6.770;2023-06-04T02:19:40;11.40;86.10
54178;DHT22;40085;53.004;6.770;2023-06-04T02:22:20;10.60;99.90
54178;DHT22;40085;53.004;6.770;2023-06-04T02:24:46;10.80;99.90
54178;DHT22;40085;53.004;6.770;2023-06-04T02:27:13;10.60;99.90
54178;DHT22;40085;53.004;6.770;2023-06-04T02:29:40;10.30;1.00
54178;DHT22;40085;53.004;6.770;2023-06-04T02:32:06;11.40;65.20
54178;DHT22;40085;53.004;6.770;2023-06-04T02:34:33;9.90;6.30
54178;DHT22;40085;53.004;6.770;2023-06-04T02:37:02;12.00;62.00
54178;DHT22;40085;53.004;6.770;2023-06-04T02:39:28;9.90;94.60
54178;DHT22;40085;53.004;6.770;2023-06-04T02:41:54;9.90;1.00
54178;DHT22;40085;53.004;6.770;2023-06-04T02:44:20;9.80;94.50
54178;DHT22;40085;53.004;6.770;2023-06-04T02:46:46;9.80;99.90
54178;DHT22;40085;53.004;6.770;2023-06-04T02:49:12;9.80;99.90
54178;DHT22;40085;53.004;6.770;2023-06-04T02:51:45;9.80;99.90
54178;DHT22;40085;53.004;6.770;2023-06-04T02:54:10;9.80;1.00
54178;DHT22;40085;53.004;6.770;2023-06-04T02:56:42;9.80;99.90
54178;DHT22;40085;53.004;6.770;2023-06-04T02:59:09;11.10;99.90
54178;DHT22;40085;53.004;6.770;2023-06-04T03:01:35;9.80;99.90
54178;DHT22;40085;53.004;6.770;2023-06-04T03:04:04;9.80;99.90
54178;DHT22;40085;53.004;6.770;2023-06-04T03:06:31;9.80;99.90
54178;DHT22;40085;53.004;6.770;2023-06-04T03:09:01;9.80;1.00
54178;DHT22;40085;53.004;6.770;2023-06-04T03:11:27;9.80;99.90
54178;DHT22;40085;53.004;6.770;2023-06-04T03:13:53;9.90;99.90
54178;DHT22;40085;53.004;6.770;2023-06-04T03:16:19;9.90;1.00
54178;DHT22;40085;53.004;6.770;2023-06-04T03:18:46;9.80;99.90
54178;DHT22;40085;53.004;6.770;2023-06-04T03:21:11;9.90;21.20
54178;DHT22;40085;53.004;6.770;2023-06-04T03:23:37;9.80;99.90
54178;DHT22;40085;53.004;6.770;2023-06-04T03:26:06;9.80;99.90
54178;DHT22;40085;53.004;6.770;2023-06-04T03:28:33;9.80;99.90
54178;DHT22;40085;53.004;6.770;2023-06-04T03:30:59;9.80;1.00
54178;DHT22;40085;53.004;6.770;2023-06-04T03:33:25;9.80;1.00
54178;DHT22;40085;53.004;6.770;2023-06-04T03:35:52;9.90;1.00
54178;DHT22;40085;53.004;6.770;2023-06-04T03:38:18;9.90;99.90
54178;DHT22;40085;53.004;6.770;2023-06-04T03:40:48;9.90;99.90
54178;DHT22;40085;53.004;6.770;2023-06-04T03:43:14;10.00;99.90
54178;DHT22;40085;53.004;6.770;2023-06-04T03:45:39;10.00;99.90
54178;DHT22;40085;53.004;6.770;2023-06-04T03:48:05;10.00;99.90
54178;DHT22;40085;53.004;6.770;2023-06-04T03:50:31;10.00;99.90
54178;DHT22;40085;53.004;6.770;2023-06-04T03:52:56;10.00;1.00
54178;DHT22;40085;53.004;6.770;2023-06-04T03:55:22;10.00;99.90
54178;DHT22;40085;53.004;6.770;2023-06-04T03:57:48;10.00;99.90
54178;DHT22;40085;53.004;6.770;2023-06-04T04:00:14;10.10;99.90
54178;DHT22;40085;53.004;6.770;2023-06-04T04:02:40;10.10;1.00
54178;DHT22;40085;53.004;6.770;2023-06-04T04:05:06;10.10;1.00
54178;DHT22;40085;53.004;6.770;2023-06-04T04:07:32;10.10;99.90
54178;DHT22;40085;53.004;6.770;2023-06-04T04:09:58;10.10;1.00
54178;DHT22;40085;53.004;6.770;2023-06-04T04:12:25;10.10;1.00
54178;DHT22;40085;53.004;6.770;2023-06-04T04:14:51;10.20;99.90
54178;DHT22;40085;53.004;6.770;2023-06-04T04:17:17;10.20;1.00
54178;DHT22;40085;53.004;6.770;2023-06-04T04:19:42;10.20;17.40
54178;DHT22;40085;53.004;6.770;2023-06-04T04:22:10;10.30;1.00
54178;DHT22;40085;53.004;6.770;2023-06-04T04:24:39;10.30;1.00
54178;DHT22;40085;53.004;6.770;2023-06-04T04:27:05;10.60;1.00
54178;DHT22;40085;53.004;6.770;2023-06-04T04:29:31;10.40;1.00
54178;DHT22;40085;53.004;6.770;2023-06-04T04:32:02;10.40;1.00
54178;DHT22;40085;53.004;6.770;2023-06-04T04:34:37;10.50;1.00
54178;DHT22;40085;53.004;6.770;2023-06-04T04:37:05;10.90;99.90
54178;DHT22;40085;53.004;6.770;2023-06-04T04:39:34;10.50;99.90
54178;DHT22;40085;53.004;6.770;2023-06-04T04:42:10;10.60;99.90
54178;DHT22;40085;53.004;6.770;2023-06-04T04:44:35;10.70;99.90
54178;DHT22;40085;53.004;6.770;2023-06-04T04:47:07;10.70;99.90
54178;DHT22;40085;53.004;6.770;2023-06-04T04:49:32;10.70;99.90
54178;DHT22;40085;53.004;6.770;2023-06-04T04:51:58;10.80;99.90
54178;DHT22;40085;53.004;6.770;2023-06-04T04:54:24;10.80;99.90
54178;DHT22;40085;53.004;6.770;2023-06-04T04:56:49;10.80;92.80
54178;DHT22;40085;53.004;6.770;2023-06-04T04:59:15;10.90;99.90
54178;DHT22;40085;53.004;6.770;2023-06-04T05:01:40;11.00;1.00
54178;DHT22;40085;53.004;6.770;2023-06-04T05:04:06;12.40;1.00
54178;DHT22;40085;53.004;6.770;2023-06-04T05:06:32;11.10;1.00
54178;DHT22;40085;53.004;6.770;2023-06-04T05:08:57;11.20;1.00
54178;DHT22;40085;53.004;6.770;2023-06-04T05:11:23;11.20;1.00
54178;DHT22;40085;53.004;6.770;2023-06-04T05:13:48;11.30;99.90
54178;DHT22;40085;53.004;6.770;2023-06-04T05:16:14;11.40;99.90
54178;DHT22;40085;53.004;6.770;2023-06-04T05:18:40;11.40;99.90
54178;DHT22;40085;53.004;6.770;2023-06-04T05:21:10;11.80;1.00
54178;DHT22;40085;53.004;6.770;2023-06-04T05:23:38;11.60;99.90
54178;DHT22;40085;53.004;6.770;2023-06-04T05:26:05;11.70;1.00
54178;DHT22;40085;53.004;6.770;2023-06-04T05:28:33;12.10;99.90
54178;DHT22;40085;53.004;6.770;2023-06-04T05:30:59;11.90;99.90
54178;DHT22;40085;53.004;6.770;2023-06-04T05:33:30;12.00;60.80
54178;DHT22;40085;53.004;6.770;2023-06-04T05:35:56;12.10;1.00
54178;DHT22;40085;53.004;6.770;2023-06-04T05:38:23;12.20;20.90
54178;DHT22;40085;53.004;6.770;2023-06-04T05:40:54;12.30;1.00
54178;DHT22;40085;53.004;6.770;2023-06-04T05:43:21;12.80;99.90
54178;DHT22;40085;53.004;6.770;2023-06-04T05:45:47;12.50;6.40
54178;DHT22;40085;53.004;6.770;2023-06-04T05:48:12;12.70;99.90
54178;DHT22;40085;53.004;6.770;2023-06-04T05:50:38;13.70;96.80
54178;DHT22;40085;53.004;6.770;2023-06-04T05:53:04;12.90;99.90
54178;DHT22;40085;53.004;6.770;2023-06-04T05:55:30;13.00;1.00
54178;DHT22;40085;53.004;6.770;2023-06-04T05:57:55;13.10;5.20
54178;DHT22;40085;53.004;6.770;2023-06-04T06:00:21;13.30;99.90
54178;DHT22;40085;53.004;6.770;2023-06-04T06:02:49;13.40;99.90
54178;DHT22;40085;53.004;6.770;2023-06-04T06:05:15;13.50;99.90
54178;DHT22;40085;53.004;6.770;2023-06-04T06:07:41;13.40;20.80
54178;DHT22;40085;53.004;6.770;2023-06-04T06:10:07;13.70;99.90
54178;DHT22;40085;53.004;6.770;2023-06-04T06:12:33;13.40;85.60
54178;DHT22;40085;53.004;6.770;2023-06-04T06:14:59;13.40;57.40
54178;DHT22;40085;53.004;6.770;2023-06-04T06:17:25;13.50;62.30
54178;DHT22;40085;53.004;6.770;2023-06-04T06:19:52;13.40;1.00
54178;DHT22;40085;53.004;6.770;2023-06-04T06:22:17;13.40;99.90
54178;DHT22;40085;53.004;6.770;2023-06-04T06:24:43;13.40;1.00
54178;DHT22;40085;53.004;6.770;2023-06-04T06:27:10;13.50;99.90
54178;DHT22;40085;53.004;6.770;2023-06-04T06:29:36;13.40;99.90
54178;DHT22;40085;53.004;6.770;2023-06-04T06:32:02;13.50;99.90
54178;DHT22;40085;53.004;6.770;2023-06-04T06:34:37;13.50;1.00
54178;DHT22;40085;53.004;6.770;2023-06-04T06:37:03;13.50;99.90
54178;DHT22;40085;53.004;6.770;2023-06-04T06:39:29;13.40;99.90
54178;DHT22;40085;53.004;6.770;2023-06-04T06:41:55;13.40;89.00
54178;DHT22;40085;53.004;6.770;2023-06-04T06:44:21;13.50;87.40
54178;DHT22;40085;53.004;6.770;2023-06-04T06:46:47;13.80;99.90
54178;DHT22;40085;53.004;6.770;2023-06-04T06:49:14;13.90;99.90
54178;DHT22;40085;53.004;6.770;2023-06-04T06:51:40;14.80;99.90
54178;DHT22;40085;53.004;6.770;2023-06-04T06:54:08;14.00;99.90
54178;DHT22;40085;53.004;6.770;2023-06-04T06:56:34;14.20;99.90
54178;DHT22;40085;53.004;6.770;2023-06-04T06:59:00;14.80;99.90
54178;DHT22;40085;53.004;6.770;2023-06-04T07:01:26;14.40;99.90
54178;DHT22;40085;53.004;6.770;2023-06-04T07:03:52;14.60;1.00
54178;DHT22;40085;53.004;6.770;2023-06-04T07:06:17;14.60;1.00
54178;DHT22;40085;53.004;6.770;2023-06-04T07:08:43;14.80;99.90
54178;DHT22;40085;53.004;6.770;2023-06-04T07:11:09;15.00;99.90
54178;DHT22;40085;53.004;6.770;2023-06-04T07:13:38;15.00;99.90
54178;DHT22;40085;53.004;6.770;2023-06-04T07:16:04;15.20;99.90
54178;DHT22;40085;53.004;6.770;2023-06-04T07:18:29;15.30;99.90
54178;DHT22;40085;53.004;6.770;2023-06-04T07:20:55;15.90;99.90
54178;DHT22;40085;53.004;6.770;2023-06-04T07:23:21;15.90;99.90
54178;DHT22;40085;53.004;6.770;2023-06-04T07:25:46;15.90;1.00
54178;DHT22;40085;53.004;6.770;2023-06-04T07:28:12;15.90;99.90
54178;DHT22;40085;53.004;6.770;2023-06-04T07:30:38;16.00;99.90
54178;DHT22;40085;53.004;6.770;2023-06-04T07:33:04;16.40;99.90
54178;DHT22;40085;53.004;6.770;2023-06-04T07:35:29;16.20;99.90
54178;DHT22;40085;53.004;6.770;2023-06-04T07:37:55;16.30;99.90
54178;DHT22;40085;53.004;6.770;2023-06-04T07:40:21;16.40;99.90
54178;DHT22;40085;53.004;6.770;2023-06-04T07:42:47;16.60;99.90
54178;DHT22;40085;53.004;6.770;2023-06-04T07:45:13;16.50;99.90
54178;DHT22;40085;53.004;6.770;2023-06-04T07:47:39;16.70;99.90
54178;DHT22;40085;53.004;6.770;2023-06-04T07:50:05;17.70;99.90
54178;DHT22;40085;53.004;6.770;2023-06-04T07:52:32;17.00;99.90
54178;DHT22;40085;53.004;6.770;2023-06-04T07:54:59;17.10;99.90
54178;DHT22;40085;53.004;6.770;2023-06-04T07:57:24;17.50;99.60
54178;DHT22;40085;53.004;6.770;2023-06-04T07:59:53;17.70;92.10
54178;DHT22;40085;53.004;6.770;2023-06-04T08:02:18;17.20;92.20
54178;DHT22;40085;53.004;6.770;2023-06-04T08:04:45;18.40;86.80
54178;DHT22;40085;53.004;6.770;2023-06-04T08:07:12;17.40;82.10
54178;DHT22;40085;53.004;6.770;2023-06-04T08:09:38;17.50;82.90
54178;DHT22;40085;53.004;6.770;2023-06-04T08:12:04;17.60;80.10
54178;DHT22;40085;53.004;6.770;2023-06-04T08:14:29;17.80;75.90
54178;DHT22;40085;53.004;6.770;2023-06-04T08:16:55;17.70;69.00
54178;DHT22;40085;53.004;6.770;2023-06-04T08:19:21;17.90;62.40
54178;DHT22;40085;53.004;6.770;2023-06-04T08:21:49;17.80;50.70
54178;DHT22;40085;53.004;6.770;2023-06-04T08:24:15;17.90;48.60
54178;DHT22;40085;53.004;6.770;2023-06-04T08:26:40;17.90;41.70
54178;DHT22;40085;53.004;6.770;2023-06-04T08:29:07;17.90;45.60
54178;DHT22;40085;53.004;6.770;2023-06-04T08:31:33;17.80;44.00
54178;DHT22;40085;53.004;6.770;2023-06-04T08:33:58;17.60;42.70
54178;DHT22;40085;53.004;6.770;2023-06-04T08:36:24;18.10;47.40
54178;DHT22;40085;53.004;6.770;2023-06-04T08:38:50;18.20;48.70
54178;DHT22;40085;53.004;6.770;2023-06-04T08:41:34;18.20;45.90
54178;DHT22;40085;53.004;6.770;2023-06-04T08:44:04;18.40;48.70
54178;DHT22;40085;53.004;6.770;2023-06-04T08:46:32;18.40;49.70
54178;DHT22;40085;53.004;6.770;2023-06-04T08:49:01;18.40;48.20
54178;DHT22;40085;53.004;6.770;2023-06-04T08:51:32;18.50;41.90
54178;DHT22;40085;53.004;6.770;2023-06-04T08:53:59;18.60;41.80
54178;DHT22;40085;53.004;6.770;2023-06-04T08:56:25;18.70;41.60
54178;DHT22;40085;53.004;6.770;2023-06-04T08:59:02;18.70;34.80
54178;DHT22;40085;53.004;6.770;2023-06-04T09:01:29;18.50;23.40
54178;DHT22;40085;53.004;6.770;2023-06-04T09:03:55;18.60;26.90
54178;DHT22;40085;53.004;6.770;2023-06-04T09:06:26;18.70;25.20
54178;DHT22;40085;53.004;6.770;2023-06-04T09:08:54;18.80;26.10
54178;DHT22;40085;53.004;6.770;2023-06-04T09:11:23;18.80;25.50
54178;DHT22;40085;53.004;6.770;2023-06-04T09:13:52;18.80;24.50
54178;DHT22;40085;53.004;6.770;2023-06-04T09:16:18;18.90;23.40
54178;DHT22;40085;53.004;6.770;2023-06-04T09:18:44;18.90;23.60
54178;DHT22;40085;53.004;6.770;2023-06-04T09:21:10;20.20;20.80
54178;DHT22;40085;53.004;6.770;2023-06-04T09:23:46;19.00;22.50
54178;DHT22;40085;53.004;6.770;2023-06-04T09:26:12;19.00;19.40
54178;DHT22;40085;53.004;6.770;2023-06-04T09:28:41;19.00;16.70
54178;DHT22;40085;53.004;6.770;2023-06-04T09:31:09;18.70;12.00
54178;DHT22;40085;53.004;6.770;2023-06-04T09:33:45;18.90;14.80
54178;DHT22;40085;53.004;6.770;2023-06-04T09:36:11;19.00;13.20
54178;DHT22;40085;53.004;6.770;2023-06-04T09:38:38;19.10;14.30
54178;DHT22;40085;53.004;6.770;2023-06-04T09:41:04;20.00;15.80
54178;DHT22;40085;53.004;6.770;2023-06-04T09:43:32;19.20;16.60
54178;DHT22;40085;53.004;6.770;2023-06-04T09:46:14;19.30;15.80
54178;DHT22;40085;53.004;6.770;2023-06-04T09:48:40;19.30;13.20
54178;DHT22;40085;53.004;6.770;2023-06-04T09:51:13;19.30;12.60
54178;DHT22;40085;53.004;6.770;2023-06-04T09:53:54;19.20;9.90
54178;DHT22;40085;53.004;6.770;2023-06-04T09:56:20;19.30;11.50
54178;DHT22;40085;53.004;6.770;2023-06-04T09:58:49;19.30;11.80
54178;DHT22;40085;53.004;6.770;2023-06-04T10:01:15;19.30;9.10
54178;DHT22;40085;53.004;6.770;2023-06-04T10:03:43;19.30;10.80
54178;DHT22;40085;53.004;6.770;2023-06-04T10:06:11;19.40;11.50
54178;DHT22;40085;53.004;6.770;2023-06-04T10:08:41;19.40;10.00
54178;DHT22;40085;53.004;6.770;2023-06-04T10:11:09;19.50;12.30
54178;DHT22;40085;53.004;6.770;2023-06-04T10:13:44;19.90;22.00
54178;DHT22;40085;53.004;6.770;2023-06-04T10:16:11;19.70;11.00
54178;DHT22;40085;53.004;6.770;2023-06-04T10:18:37;19.70;10.10
54178;DHT22;40085;53.004;6.770;2023-06-04T10:21:03;19.70;11.50
54178;DHT22;40085;53.004;6.770;2023-06-04T10:23:30;19.60;7.60
54178;DHT22;40085;53.004;6.770;2023-06-04T10:25:56;19.70;8.90
54178;DHT22;40085;53.004;6.770;2023-06-04T10:28:23;19.60;9.70
54178;DHT22;40085;53.004;6.770;2023-06-04T10:30:51;19.60;9.20
54178;DHT22;40085;53.004;6.770;2023-06-04T10:33:21;19.70;11.50
54178;DHT22;40085;53.004;6.770;2023-06-04T10:35:53;19.60;9.70
54178;DHT22;40085;53.004;6.770;2023-06-04T10:38:19;19.80;7.80
54178;DHT22;40085;53.004;6.770;2023-06-04T10:40:47;19.70;9.90
54178;DHT22;40085;53.004;6.770;2023-06-04T10:43:14;19.70;9.60
54178;DHT22;40085;53.004;6.770;2023-06-04T10:45:42;19.70;20.00
54178;DHT22;40085;53.004;6.770;2023-06-04T10:48:09;19.70;9.00
54178;DHT22;40085;53.004;6.770;2023-06-04T10:50:47;20.10;8.80
54178;DHT22;40085;53.004;6.770;2023-06-04T10:53:13;19.70;8.40
54178;DHT22;40085;53.004;6.770;2023-06-04T10:55:47;19.90;9.20
54178;DHT22;40085;53.004;6.770;2023-06-04T10:58:12;19.70;7.60
54178;DHT22;40085;53.004;6.770;2023-06-04T11:00:40;19.80;8.20
54178;DHT22;40085;53.004;6.770;2023-06-04T11:03:07;19.80;7.90
54178;DHT22;40085;53.004;6.770;2023-06-04T11:05:34;19.80;5.70
54178;DHT22;40085;53.004;6.770;2023-06-04T11:08:01;19.80;6.90
54178;DHT22;40085;53.004;6.770;2023-06-04T11:10:36;19.80;6.30
54178;DHT22;40085;53.004;6.770;2023-06-04T11:13:03;19.70;5.10
54178;DHT22;40085;53.004;6.770;2023-06-04T11:15:46;19.70;6.00
54178;DHT22;40085;53.004;6.770;2023-06-04T11:18:18;20.30;5.10
54178;DHT22;40085;53.004;6.770;2023-06-04T11:20:44;20.30;6.90
54178;DHT22;40085;53.004;6.770;2023-06-04T11:23:13;19.90;6.60
54178;DHT22;40085;53.004;6.770;2023-06-04T11:25:39;19.90;6.90
54178;DHT22;40085;53.004;6.770;2023-06-04T11:28:04;20.00;14.30
54178;DHT22;40085;53.004;6.770;2023-06-04T11:30:30;20.10;7.50
54178;DHT22;40085;53.004;6.770;2023-06-04T11:33:05;20.30;8.40
54178;DHT22;40085;53.004;6.770;2023-06-04T11:35:39;20.10;7.40
54178;DHT22;40085;53.004;6.770;2023-06-04T11:38:05;20.10;8.80
54178;DHT22;40085;53.004;6.770;2023-06-04T11:40:31;20.10;9.30
54178;DHT22;40085;53.004;6.770;2023-06-04T11:42:57;20.10;10.00
54178;DHT22;40085;53.004;6.770;2023-06-04T11:45:23;20.20;10.80
54178;DHT22;40085;53.004;6.770;2023-06-04T11:47:52;20.20;9.70
54178;DHT22;40085;53.004;6.770;2023-06-04T11:50:19;20.20;9.50
54178;DHT22;40085;53.004;6.770;2023-06-04T11:52:46;20.30;9.60
54178;DHT22;40085;53.004;6.770;2023-06-04T11:55:12;20.30;9.80
54178;DHT22;40085;53.004;6.770;2023-06-04T11:57:39;20.20;9.70
54178;DHT22;40085;53.004;6.770;2023-06-04T12:00:10;20.30;11.30
54178;DHT22;40085;53.004;6.770;2023-06-04T12:02:52;20.40;12.00
54178;DHT22;40085;53.004;6.770;2023-06-04T12:05:19;20.40;8.50
54178;DHT22;40085;53.004;6.770;2023-06-04T12:07:46;20.30;20.40
54178;DHT22;40085;53.004;6.770;2023-06-04T12:10:13;20.40;11.20
54178;DHT22;40085;53.004;6.770;2023-06-04T12:12:39;20.40;11.40
54178;DHT22;40085;53.004;6.770;2023-06-04T12:15:08;20.50;12.80
54178;DHT22;40085;53.004;6.770;2023-06-04T12:17:48;20.50;12.40
54178;DHT22;40085;53.004;6.770;2023-06-04T12:20:14;20.60;13.60
54178;DHT22;40085;53.004;6.770;2023-06-04T12:22:46;20.70;13.90
54178;DHT22;40085;53.004;6.770;2023-06-04T12:25:22;20.40;12.80
54178;DHT22;40085;53.004;6.770;2023-06-04T12:27:48;20.70;14.00
54178;DHT22;40085;53.004;6.770;2023-06-04T12:30:14;20.70;14.00
54178;DHT22;40085;53.004;6.770;2023-06-04T12:32:41;20.60;13.70
54178;DHT22;40085;53.004;6.770;2023-06-04T12:35:08;20.50;12.50
54178;DHT22;40085;53.004;6.770;2023-06-04T12:37:33;20.50;12.20
54178;DHT22;40085;53.004;6.770;2023-06-04T12:39:59;20.60;12.60
54178;DHT22;40085;53.004;6.770;2023-06-04T12:42:25;20.50;12.30
54178;DHT22;40085;53.004;6.770;2023-06-04T12:44:53;20.60;12.30
54178;DHT22;40085;53.004;6.770;2023-06-04T12:47:19;20.60;13.10
54178;DHT22;40085;53.004;6.770;2023-06-04T12:49:46;20.50;12.20
54178;DHT22;40085;53.004;6.770;2023-06-04T12:52:12;20.50;12.00
54178;DHT22;40085;53.004;6.770;2023-06-04T12:54:39;20.50;23.60
54178;DHT22;40085;53.004;6.770;2023-06-04T12:57:05;21.30;12.90
54178;DHT22;40085;53.004;6.770;2023-06-04T12:59:31;20.70;13.60
54178;DHT22;40085;53.004;6.770;2023-06-04T13:01:57;20.70;13.70
54178;DHT22;40085;53.004;6.770;2023-06-04T13:04:23;20.70;13.30
54178;DHT22;40085;53.004;6.770;2023-06-04T13:06:51;20.60;12.80
54178;DHT22;40085;53.004;6.770;2023-06-04T13:09:24;20.70;13.60
54178;DHT22;40085;53.004;6.770;2023-06-04T13:11:51;21.60;11.60
54178;DHT22;40085;53.004;6.770;2023-06-04T13:14:16;20.70;12.10
54178;DHT22;40085;53.004;6.770;2023-06-04T13:16:42;20.60;11.40
54178;DHT22;40085;53.004;6.770;2023-06-04T13:19:10;20.70;12.80
54178;DHT22;40085;53.004;6.770;2023-06-04T13:21:36;20.80;13.10
54178;DHT22;40085;53.004;6.770;2023-06-04T13:24:01;20.80;12.90
54178;DHT22;40085;53.004;6.770;2023-06-04T13:26:27;20.80;12.20
54178;DHT22;40085;53.004;6.770;2023-06-04T13:28:53;21.20;12.60
54178;DHT22;40085;53.004;6.770;2023-06-04T13:31:18;20.90;13.50
54178;DHT22;40085;53.004;6.770;2023-06-04T13:33:49;21.00;12.70
54178;DHT22;40085;53.004;6.770;2023-06-04T13:36:14;21.00;17.70
54178;DHT22;40085;53.004;6.770;2023-06-04T13:38:40;21.10;14.20
54178;DHT22;40085;53.004;6.770;2023-06-04T13:41:08;20.90;12.90
54178;DHT22;40085;53.004;6.770;2023-06-04T13:43:34;21.00;13.20
54178;DHT22;40085;53.004;6.770;2023-06-04T13:45:59;21.00;13.50
54178;DHT22;40085;53.004;6.770;2023-06-04T13:48:25;20.90;13.80
54178;DHT22;40085;53.004;6.770;2023-06-04T13:50:50;20.90;13.00
54178;DHT22;40085;53.004;6.770;2023-06-04T13:53:16;21.10;15.10
54178;DHT22;40085;53.004;6.770;2023-06-04T13:55:42;21.10;15.50
54178;DHT22;40085;53.004;6.770;2023-06-04T13:58:07;21.20;15.50
54178;DHT22;40085;53.004;6.770;2023-06-04T14:00:33;21.60;14.20
54178;DHT22;40085;53.004;6.770;2023-06-04T14:02:59;21.20;14.80
54178;DHT22;40085;53.004;6.770;2023-06-04T14:05:25;21.20;14.70
54178;DHT22;40085;53.004;6.770;2023-06-04T14:07:53;21.10;13.70
54178;DHT22;40085;53.004;6.770;2023-06-04T14:10:19;21.20;14.60
54178;DHT22;40085;53.004;6.770;2023-06-04T14:12:45;21.30;14.60
54178;DHT22;40085;53.004;6.770;2023-06-04T14:15:11;21.20;17.60
54178;DHT22;40085;53.004;6.770;2023-06-04T14:17:38;21.10;14.20
54178;DHT22;40085;53.004;6.770;2023-06-04T14:20:07;21.20;12.90
54178;DHT22;40085;53.004;6.770;2023-06-04T14:22:37;21.10;13.40
54178;DHT22;40085;53.004;6.770;2023-06-04T14:25:07;21.20;14.90
54178;DHT22;40085;53.004;6.770;2023-06-04T14:27:33;21.20;14.20
54178;DHT22;40085;53.004;6.770;2023-06-04T14:30:00;21.20;13.80
54178;DHT22;40085;53.004;6.770;2023-06-04T14:32:25;20.90;13.40
54178;DHT22;40085;53.004;6.770;2023-06-04T14:34:51;21.20;13.20
54178;DHT22;40085;53.004;6.770;2023-06-04T14:37:19;21.00;12.40
54178;DHT22;40085;53.004;6.770;2023-06-04T14:39:46;20.90;11.20
54178;DHT22;40085;53.004;6.770;2023-06-04T14:42:12;20.90;12.10
54178;DHT22;40085;53.004;6.770;2023-06-04T14:44:41;20.90;13.20
54178;DHT22;40085;53.004;6.770;2023-06-04T14:47:07;21.10;13.10
54178;DHT22;40085;53.004;6.770;2023-06-04T14:49:32;21.10;13.80
54178;DHT22;40085;53.004;6.770;2023-06-04T14:51:58;21.00;11.50
54178;DHT22;40085;53.004;6.770;2023-06-04T14:54:24;20.90;10.20
54178;DHT22;40085;53.004;6.770;2023-06-04T14:56:49;21.00;11.40
54178;DHT22;40085;53.004;6.770;2023-06-04T14:59:15;21.70;12.70
54178;DHT22;40085;53.004;6.770;2023-06-04T15:01:41;21.10;12.30
54178;DHT22;40085;53.004;6.770;2023-06-04T15:04:08;22.10;13.30
54178;DHT22;40085;53.004;6.770;2023-06-04T15:06:34;21.20;12.70
54178;DHT22;40085;53.004;6.770;2023-06-04T15:08:59;21.20;12.30
54178;DHT22;40085;53.004;6.770;2023-06-04T15:11:25;21.20;11.50
54178;DHT22;40085;53.004;6.770;2023-06-04T15:13:54;21.10;11.30
54178;DHT22;40085;53.004;6.770;2023-06-04T15:16:20;20.90;9.90
54178;DHT22;40085;53.004;6.770;2023-06-04T15:18:47;20.90;10.00
54178;DHT22;40085;53.004;6.770;2023-06-04T15:21:12;20.90;9.50
54178;DHT22;40085;53.004;6.770;2023-06-04T15:23:38;20.90;9.30
54178;DHT22;40085;53.004;6.770;2023-06-04T15:26:06;20.90;10.40
54178;DHT22;40085;53.004;6.770;2023-06-04T15:28:32;21.00;10.20
54178;DHT22;40085;53.004;6.770;2023-06-04T15:30:57;20.90;9.50
54178;DHT22;40085;53.004;6.770;2023-06-04T15:33:23;21.00;9.20
54178;DHT22;40085;53.004;6.770;2023-06-04T15:35:49;21.00;9.80
54178;DHT22;40085;53.004;6.770;2023-06-04T15:38:14;22.20;10.00
54178;DHT22;40085;53.004;6.770;2023-06-04T15:40:40;21.00;9.10